createdAt,value
2022-09-22T00:00:38.041Z,11.48
2022-09-22T00:05:40.123Z,3.83
2022-09-22T00:10:42.200Z,6.82
2022-09-22T00:15:46.792Z,5.30
2022-09-22T00:20:48.840Z,6.57
2022-09-22T00:25:51.032Z,9.05
2022-09-22T00:30:53.300Z,6.53
2022-09-22T00:36:00.222Z,7.80
2022-09-22T00:41:02.858Z,5.20
2022-09-22T00:46:16.210Z,5.32
2022-09-22T00:51:22.399Z,11.38
2022-09-22T00:56:31.785Z,5.43
2022-09-22T01:01:40.288Z,5.50
2022-09-22T01:06:43.145Z,7.45
2022-09-22T01:11:45.252Z,5.63
2022-09-22T01:16:47.306Z,10.90
2022-09-22T01:22:05.191Z,4.80
2022-09-22T01:27:46.674Z,10.52
2022-09-22T01:33:10.517Z,5.43
2022-09-22T01:38:27.202Z,5.88
2022-09-22T01:43:45.154Z,4.90
2022-09-22T01:48:50.324Z,4.15
2022-09-22T01:53:58.766Z,6.45
2022-09-22T01:59:04.907Z,5.13
2022-09-22T02:04:29.616Z,4.25
2022-09-22T02:09:34.830Z,5.00
2022-09-22T02:14:36.655Z,4.20
2022-09-22T02:19:39.990Z,5.07
2022-09-22T02:24:42.077Z,7.43
2022-09-22T02:29:49.659Z,5.68
2022-09-22T02:34:51.902Z,6.55
2022-09-22T02:40:09.629Z,6.50
2022-09-22T02:45:31.166Z,6.10
2022-09-22T02:50:34.254Z,7.90
2022-09-22T02:55:36.402Z,7.53
2022-09-22T03:00:38.136Z,7.60
2022-09-22T03:05:40.559Z,5.22
2022-09-22T03:10:42.621Z,4.75
2022-09-22T03:15:46.765Z,13.95
2022-09-22T03:20:48.991Z,4.78
2022-09-22T03:25:51.039Z,7.13
2022-09-22T03:30:53.175Z,4.70
2022-09-22T03:35:55.324Z,5.78
2022-09-22T03:40:58.785Z,6.28
2022-09-22T03:46:02.406Z,5.03
2022-09-22T03:51:04.576Z,5.15
2022-09-22T03:56:14.493Z,5.32
2022-09-22T04:01:16.859Z,6.35
2022-09-22T04:06:19.161Z,6.32
2022-09-22T04:11:21.574Z,5.63
2022-09-22T04:16:23.699Z,5.68
2022-09-22T04:21:25.817Z,5.82
2022-09-22T04:26:27.884Z,5.32
2022-09-22T04:31:30.103Z,6.13
2022-09-22T04:36:32.177Z,4.65
2022-09-22T04:41:34.292Z,3.92
2022-09-22T04:46:36.472Z,4.60
2022-09-22T04:51:38.513Z,5.90
2022-09-22T04:56:40.599Z,4.13
2022-09-22T05:01:42.767Z,4.85
2022-09-22T05:06:44.929Z,6.72
2022-09-22T05:11:50.183Z,8.05
2022-09-22T05:16:52.374Z,4.88
2022-09-22T05:21:54.496Z,6.97
2022-09-22T05:26:56.560Z,4.80
2022-09-22T05:31:58.770Z,5.00
2022-09-22T05:37:00.861Z,6.35
2022-09-22T05:42:06.374Z,7.45
2022-09-22T05:47:11.041Z,13.45
2022-09-22T05:52:13.175Z,9.13
2022-09-22T05:57:15.506Z,8.60
2022-09-22T06:02:25.671Z,10.88
2022-09-22T06:07:28.347Z,15.23
2022-09-22T06:12:30.925Z,11.52
2022-09-22T06:17:33.381Z,12.02
2022-09-22T06:22:37.098Z,11.27
2022-09-22T06:27:40.000Z,11.30
2022-09-22T06:32:43.818Z,9.68
2022-09-22T06:37:48.586Z,12.70
2022-09-22T06:42:50.734Z,8.65
2022-09-22T06:47:52.796Z,9.82
2022-09-22T06:53:01.369Z,12.82
2022-09-22T06:58:05.454Z,9.85
2022-09-22T07:03:15.245Z,12.90
2022-09-22T07:08:17.004Z,13.02
2022-09-22T07:13:18.847Z,13.48
2022-09-22T07:18:20.536Z,10.70
2022-09-22T07:23:22.211Z,10.02
2022-09-22T07:28:28.811Z,9.68
2022-09-22T07:33:30.483Z,19.92
2022-09-22T07:38:36.332Z,13.77
2022-09-22T07:43:38.642Z,10.15
2022-09-22T07:48:45.661Z,14.25
2022-09-22T07:53:50.729Z,8.00
2022-09-22T07:58:53.841Z,7.07
2022-09-22T08:03:57.138Z,3.72
2022-09-22T08:09:00.205Z,3.88
2022-09-22T08:14:04.731Z,3.65
2022-09-22T08:19:14.788Z,3.95
2022-09-22T08:24:22.278Z,3.03
2022-09-22T08:29:24.794Z,3.33
2022-09-22T08:34:26.547Z,2.50
2022-09-22T08:39:28.818Z,3.75
2022-09-22T08:44:37.368Z,4.65
2022-09-22T08:50:07.770Z,3.42
2022-09-22T08:55:23.116Z,4.57
2022-09-22T09:00:28.667Z,2.38
2022-09-22T09:06:00.365Z,3.47
2022-09-22T09:11:42.033Z,3.63
2022-09-22T09:16:52.982Z,4.93
2022-09-22T09:22:01.426Z,1.85
2022-09-22T09:27:13.421Z,1.38
2022-09-22T09:32:28.166Z,1.45
2022-09-22T09:37:30.970Z,2.35
2022-09-22T09:42:35.447Z,4.45
2022-09-22T09:47:40.439Z,2.67
2022-09-22T09:52:42.297Z,3.45
2022-09-22T09:58:10.949Z,1.90
2022-09-22T10:03:17.474Z,2.40
2022-09-22T10:08:23.525Z,2.20
2022-09-22T10:13:55.158Z,1.48
2022-09-22T10:19:20.344Z,4.68
2022-09-22T10:24:33.376Z,2.10
2022-09-22T10:29:35.473Z,1.20
2022-09-22T10:34:48.897Z,1.95
2022-09-22T10:39:52.670Z,2.92
2022-09-22T10:44:57.838Z,0.63
2022-09-22T10:50:34.885Z,0.75
2022-09-22T10:55:46.169Z,2.15
2022-09-22T11:00:47.900Z,3.20
2022-09-22T11:06:31.842Z,1.98
2022-09-22T11:12:03.086Z,0.90
2022-09-22T11:17:31.194Z,2.20
2022-09-22T11:23:13.242Z,0.95
2022-09-22T11:28:20.835Z,3.03
2022-09-22T11:33:39.623Z,1.33
2022-09-22T11:39:19.059Z,2.60
2022-09-22T11:44:33.230Z,2.13
2022-09-22T11:50:13.823Z,0.85
2022-09-22T11:55:33.992Z,1.00
2022-09-22T12:00:42.547Z,2.03
2022-09-22T12:05:58.535Z,0.60
2022-09-22T12:11:00.844Z,0.65
2022-09-22T12:16:19.693Z,2.67
2022-09-22T12:21:27.648Z,4.43
2022-09-22T12:26:35.111Z,5.55
2022-09-22T12:31:41.720Z,2.60
2022-09-22T12:36:43.528Z,1.80
2022-09-22T12:42:03.173Z,0.63
2022-09-22T12:47:16.472Z,2.38
2022-09-22T12:52:40.542Z,0.68
2022-09-22T12:57:52.849Z,1.63
2022-09-22T13:02:56.522Z,1.63
2022-09-22T13:07:58.276Z,1.80
2022-09-22T13:13:02.965Z,0.82
2022-09-22T13:18:05.158Z,7.30
2022-09-22T13:23:14.053Z,1.25
2022-09-22T13:28:25.948Z,3.38
2022-09-22T13:33:32.537Z,1.00
2022-09-22T13:38:38.180Z,1.35
2022-09-22T13:43:44.413Z,1.50
2022-09-22T13:48:46.237Z,0.70
2022-09-22T13:53:52.043Z,1.58
2022-09-22T13:58:57.380Z,2.78
2022-09-22T14:03:59.507Z,1.45
2022-09-22T14:09:01.632Z,0.57
2022-09-22T14:14:04.353Z,1.45
2022-09-22T14:19:15.813Z,2.28
2022-09-22T14:24:18.389Z,2.35
2022-09-22T14:29:27.359Z,6.40
2022-09-22T14:34:32.624Z,0.60
2022-09-22T14:39:34.574Z,1.15
2022-09-22T14:44:43.870Z,2.22
2022-09-22T14:49:47.569Z,2.08
2022-09-22T14:54:50.111Z,0.95
2022-09-22T15:00:16.589Z,1.15
2022-09-22T15:05:30.292Z,1.98
2022-09-22T15:10:35.156Z,0.60
2022-09-22T15:15:45.586Z,2.70
2022-09-22T15:20:53.045Z,3.67
2022-09-22T15:25:55.729Z,0.60
2022-09-22T15:30:57.734Z,1.90
2022-09-22T15:36:09.998Z,0.93
2022-09-22T15:41:15.679Z,3.58
2022-09-22T15:51:50.139Z,1.77
2022-09-22T15:56:54.850Z,1.80
2022-09-22T16:01:57.217Z,1.02
2022-09-22T16:07:03.905Z,0.73
2022-09-22T16:12:08.576Z,1.02
2022-09-22T16:17:10.289Z,1.13
2022-09-22T16:22:12.383Z,2.70
2022-09-22T16:27:14.469Z,0.60
2022-09-22T16:32:17.069Z,1.40
2022-09-22T16:37:19.370Z,0.82
2022-09-22T16:42:23.709Z,1.73
2022-09-22T16:47:26.467Z,1.95
2022-09-22T16:52:31.911Z,1.60
2022-09-22T16:57:33.761Z,3.00
2022-09-22T17:02:35.926Z,1.92
2022-09-22T17:07:37.649Z,4.10
2022-09-22T17:12:42.924Z,9.07
2022-09-22T17:17:44.684Z,8.45
2022-09-22T17:22:47.635Z,4.65
2022-09-22T17:27:49.700Z,1.35
2022-09-22T17:32:51.885Z,7.13
2022-09-22T17:37:54.065Z,3.85
2022-09-22T17:42:56.008Z,7.00
2022-09-22T17:48:16.484Z,3.90
2022-09-22T17:53:37.284Z,5.57
2022-09-22T17:58:38.966Z,4.18
2022-09-22T18:03:41.436Z,3.83
2022-09-22T18:08:44.440Z,9.52
2022-09-22T18:13:48.272Z,7.43
2022-09-22T18:18:50.389Z,7.47
2022-09-22T18:23:52.133Z,12.32
2022-09-22T18:28:54.237Z,7.15
2022-09-22T18:33:56.156Z,8.73
2022-09-22T18:38:57.791Z,7.75
2022-09-22T18:44:00.000Z,8.13
2022-09-22T18:49:08.606Z,12.23
2022-09-22T18:54:15.291Z,3.72
2022-09-22T18:59:23.973Z,5.97
2022-09-22T19:04:26.886Z,9.52
2022-09-22T19:09:28.562Z,5.78
2022-09-22T19:14:38.850Z,8.65
2022-09-22T19:19:42.217Z,6.93
2022-09-22T19:24:45.967Z,6.00
2022-09-22T19:29:49.011Z,4.07
2022-09-22T19:34:53.633Z,8.60
2022-09-22T19:39:55.794Z,14.88
2022-09-22T19:44:57.873Z,17.30
2022-09-22T19:50:00.008Z,17.75
2022-09-22T19:55:02.289Z,15.57
2022-09-22T20:00:05.062Z,12.20
2022-09-22T20:05:19.532Z,10.77
2022-09-22T20:10:22.632Z,12.23
2022-09-22T20:15:25.727Z,15.50
2022-09-22T20:20:28.800Z,17.70
2022-09-22T20:25:32.568Z,15.70
2022-09-22T20:30:35.096Z,11.40
2022-09-22T20:35:37.190Z,12.35
2022-09-22T20:40:39.109Z,8.98
2022-09-22T20:45:42.834Z,6.57
2022-09-22T20:51:02.884Z,9.98
2022-09-22T20:56:07.868Z,14.65
2022-09-22T21:01:12.233Z,11.73
2022-09-22T21:06:15.844Z,12.77
2022-09-22T21:11:19.503Z,16.55
2022-09-22T21:16:21.350Z,14.40
2022-09-22T21:21:23.587Z,12.77
2022-09-22T21:26:25.778Z,10.75
2022-09-22T21:31:28.212Z,9.15
2022-09-22T21:36:30.677Z,7.20
2022-09-22T21:41:33.167Z,5.43
2022-09-22T21:46:37.170Z,5.03
2022-09-22T21:51:44.279Z,4.78
2022-09-22T21:56:46.559Z,6.75
2022-09-22T22:01:48.782Z,8.93
2022-09-22T22:06:52.034Z,4.70
2022-09-22T22:11:56.610Z,5.43
2022-09-22T22:16:58.832Z,5.07
2022-09-22T22:22:00.926Z,6.18
2022-09-22T22:27:09.859Z,9.23
2022-09-22T22:32:11.657Z,14.70
2022-09-22T22:37:13.744Z,13.57
2022-09-22T22:42:15.786Z,5.45
2022-09-22T22:47:17.904Z,4.05
2022-09-22T22:52:19.552Z,5.00
2022-09-22T22:57:21.246Z,5.90
2022-09-22T23:02:23.441Z,6.90
2022-09-22T23:07:25.543Z,6.40
2022-09-22T23:12:27.206Z,5.25
2022-09-22T23:17:31.980Z,8.52
2022-09-22T23:22:34.866Z,8.48
2022-09-22T23:27:36.930Z,3.97
2022-09-22T23:32:38.990Z,6.82
2022-09-22T23:37:40.654Z,9.40
2022-09-22T23:42:44.369Z,9.55
2022-09-22T23:47:46.434Z,8.70
2022-09-22T23:52:48.078Z,4.53
2022-09-22T23:57:50.388Z,4.13
